sensor_id;sensor_type;location;lat;lon;timestamp;P1;durP1;ratioP1;P2;durP2;ratioP2
13291;SDS011;6714;53.056;8.690;2023-08-31T00:01:40;2.10;;;1.93;;
13291;SDS011;6714;53.056;8.690;2023-08-31T00:04:22;2.80;;;1.90;;
13291;SDS011;6714;53.056;8.690;2023-08-31T00:07:05;2.53;;;2.10;;
13291;SDS011;6714;53.056;8.690;2023-08-31T00:09:48;2.63;;;1.70;;
13291;SDS011;6714;53.056;8.690;2023-08-31T00:12:31;1.77;;;1.50;;
13291;SDS011;6714;53.056;8.690;2023-08-31T00:15:13;1.90;;;1.53;;
13291;SDS011;6714;53.056;8.690;2023-08-31T00:17:57;1.80;;;1.70;;
13291;SDS011;6714;53.056;8.690;2023-08-31T00:20:39;2.00;;;1.80;;
13291;SDS011;6714;53.056;8.690;2023-08-31T00:23:22;4.63;;;2.03;;
13291;SDS011;6714;53.056;8.690;2023-08-31T00:26:04;1.73;;;1.43;;
13291;SDS011;6714;53.056;8.690;2023-08-31T00:28:47;4.13;;;1.60;;
13291;SDS011;6714;53.056;8.690;2023-08-31T00:31:29;2.17;;;2.03;;
13291;SDS011;6714;53.056;8.690;2023-08-31T00:34:13;2.23;;;1.70;;
13291;SDS011;6714;53.056;8.690;2023-08-31T00:36:57;3.20;;;2.00;;
13291;SDS011;6714;53.056;8.690;2023-08-31T00:39:40;2.37;;;1.93;;
13291;SDS011;6714;53.056;8.690;2023-08-31T00:42:23;2.00;;;1.77;;
13291;SDS011;6714;53.056;8.690;2023-08-31T00:45:06;2.17;;;1.97;;
13291;SDS011;6714;53.056;8.690;2023-08-31T00:47:48;2.37;;;1.90;;
13291;SDS011;6714;53.056;8.690;2023-08-31T00:50:32;1.63;;;1.53;;
13291;SDS011;6714;53.056;8.690;2023-08-31T00:53:15;1.43;;;1.33;;
13291;SDS011;6714;53.056;8.690;2023-08-31T00:55:57;5.80;;;1.80;;
13291;SDS011;6714;53.056;8.690;2023-08-31T00:58:40;3.20;;;1.80;;
13291;SDS011;6714;53.056;8.690;2023-08-31T01:01:24;2.90;;;2.00;;
13291;SDS011;6714;53.056;8.690;2023-08-31T01:04:12;2.60;;;1.70;;
13291;SDS011;6714;53.056;8.690;2023-08-31T01:07:01;4.07;;;1.90;;
13291;SDS011;6714;53.056;8.690;2023-08-31T01:09:48;1.67;;;1.57;;
13291;SDS011;6714;53.056;8.690;2023-08-31T01:12:34;2.33;;;1.93;;
13291;SDS011;6714;53.056;8.690;2023-08-31T01:15:18;1.80;;;1.50;;
13291;SDS011;6714;53.056;8.690;2023-08-31T01:18:01;2.07;;;1.87;;
13291;SDS011;6714;53.056;8.690;2023-08-31T01:20:45;3.37;;;2.13;;
13291;SDS011;6714;53.056;8.690;2023-08-31T01:23:30;1.60;;;1.50;;
13291;SDS011;6714;53.056;8.690;2023-08-31T01:26:17;1.93;;;1.73;;
13291;SDS011;6714;53.056;8.690;2023-08-31T01:29:00;3.17;;;1.90;;
13291;SDS011;6714;53.056;8.690;2023-08-31T01:31:42;3.20;;;2.03;;
13291;SDS011;6714;53.056;8.690;2023-08-31T01:34:25;2.40;;;1.90;;
13291;SDS011;6714;53.056;8.690;2023-08-31T01:37:09;1.80;;;1.70;;
13291;SDS011;6714;53.056;8.690;2023-08-31T01:39:52;1.87;;;1.70;;
13291;SDS011;6714;53.056;8.690;2023-08-31T01:42:39;2.33;;;1.60;;
13291;SDS011;6714;53.056;8.690;2023-08-31T01:45:22;3.17;;;1.70;;
13291;SDS011;6714;53.056;8.690;2023-08-31T01:48:06;4.67;;;2.10;;
13291;SDS011;6714;53.056;8.690;2023-08-31T01:50:48;2.80;;;2.00;;
13291;SDS011;6714;53.056;8.690;2023-08-31T01:53:31;3.27;;;2.40;;
13291;SDS011;6714;53.056;8.690;2023-08-31T01:56:13;3.97;;;2.20;;
13291;SDS011;6714;53.056;8.690;2023-08-31T01:58:57;3.00;;;2.23;;
13291;SDS011;6714;53.056;8.690;2023-08-31T02:01:39;2.97;;;2.00;;
13291;SDS011;6714;53.056;8.690;2023-08-31T02:04:21;2.33;;;1.90;;
13291;SDS011;6714;53.056;8.690;2023-08-31T02:07:04;2.40;;;2.03;;
13291;SDS011;6714;53.056;8.690;2023-08-31T02:09:46;2.90;;;1.80;;
13291;SDS011;6714;53.056;8.690;2023-08-31T02:12:28;3.10;;;1.90;;
13291;SDS011;6714;53.056;8.690;2023-08-31T02:15:12;1.60;;;1.60;;
13291;SDS011;6714;53.056;8.690;2023-08-31T02:17:54;2.50;;;2.10;;
13291;SDS011;6714;53.056;8.690;2023-08-31T02:20:37;2.90;;;1.93;;
13291;SDS011;6714;53.056;8.690;2023-08-31T02:23:19;2.47;;;2.27;;
13291;SDS011;6714;53.056;8.690;2023-08-31T02:26:02;2.30;;;2.10;;
13291;SDS011;6714;53.056;8.690;2023-08-31T02:28:44;6.43;;;2.40;;
13291;SDS011;6714;53.056;8.690;2023-08-31T02:31:28;2.00;;;1.80;;
13291;SDS011;6714;53.056;8.690;2023-08-31T02:34:10;1.50;;;1.50;;
13291;SDS011;6714;53.056;8.690;2023-08-31T02:36:52;1.80;;;1.70;;
13291;SDS011;6714;53.056;8.690;2023-08-31T02:39:35;2.40;;;2.20;;
13291;SDS011;6714;53.056;8.690;2023-08-31T02:42:17;3.40;;;2.33;;
13291;SDS011;6714;53.056;8.690;2023-08-31T02:45:00;2.83;;;2.30;;
13291;SDS011;6714;53.056;8.690;2023-08-31T02:47:44;2.70;;;1.63;;
13291;SDS011;6714;53.056;8.690;2023-08-31T02:50:27;2.47;;;2.20;;
13291;SDS011;6714;53.056;8.690;2023-08-31T02:53:09;3.63;;;2.40;;
13291;SDS011;6714;53.056;8.690;2023-08-31T02:55:51;4.87;;;3.03;;
13291;SDS011;6714;53.056;8.690;2023-08-31T02:58:33;2.97;;;1.80;;
13291;SDS011;6714;53.056;8.690;2023-08-31T03:01:16;2.43;;;2.23;;
13291;SDS011;6714;53.056;8.690;2023-08-31T03:04:00;3.30;;;2.87;;
13291;SDS011;6714;53.056;8.690;2023-08-31T03:06:42;3.13;;;2.60;;
13291;SDS011;6714;53.056;8.690;2023-08-31T03:09:25;2.50;;;2.30;;
13291;SDS011;6714;53.056;8.690;2023-08-31T03:12:08;4.33;;;2.67;;
13291;SDS011;6714;53.056;8.690;2023-08-31T03:14:50;3.50;;;3.20;;
13291;SDS011;6714;53.056;8.690;2023-08-31T03:17:32;2.63;;;2.40;;
13291;SDS011;6714;53.056;8.690;2023-08-31T03:20:16;4.90;;;2.87;;
13291;SDS011;6714;53.056;8.690;2023-08-31T03:22:59;2.97;;;2.77;;
13291;SDS011;6714;53.056;8.690;2023-08-31T03:25:41;2.37;;;2.20;;
13291;SDS011;6714;53.056;8.690;2023-08-31T03:28:23;4.03;;;2.27;;
13291;SDS011;6714;53.056;8.690;2023-08-31T03:31:06;3.10;;;2.30;;
13291;SDS011;6714;53.056;8.690;2023-08-31T03:33:49;2.77;;;1.80;;
13291;SDS011;6714;53.056;8.690;2023-08-31T03:36:33;2.57;;;2.33;;
13291;SDS011;6714;53.056;8.690;2023-08-31T03:39:16;3.17;;;2.20;;
13291;SDS011;6714;53.056;8.690;2023-08-31T03:41:59;2.70;;;1.80;;
13291;SDS011;6714;53.056;8.690;2023-08-31T03:44:41;2.43;;;2.10;;
13291;SDS011;6714;53.056;8.690;2023-08-31T03:47:23;2.10;;;1.90;;
13291;SDS011;6714;53.056;8.690;2023-08-31T03:50:06;4.87;;;3.10;;
13291;SDS011;6714;53.056;8.690;2023-08-31T03:52:50;4.20;;;2.90;;
13291;SDS011;6714;53.056;8.690;2023-08-31T03:55:32;2.77;;;2.53;;
13291;SDS011;6714;53.056;8.690;2023-08-31T03:58:15;3.67;;;3.33;;
13291;SDS011;6714;53.056;8.690;2023-08-31T04:00:58;2.30;;;2.10;;
13291;SDS011;6714;53.056;8.690;2023-08-31T04:03:40;3.33;;;2.33;;
13291;SDS011;6714;53.056;8.690;2023-08-31T04:06:22;4.27;;;3.27;;
13291;SDS011;6714;53.056;8.690;2023-08-31T04:09:06;2.97;;;2.70;;
13291;SDS011;6714;53.056;8.690;2023-08-31T04:11:48;4.10;;;2.47;;
13291;SDS011;6714;53.056;8.690;2023-08-31T04:14:31;3.43;;;2.80;;
13291;SDS011;6714;53.056;8.690;2023-08-31T04:17:13;3.47;;;2.83;;
13291;SDS011;6714;53.056;8.690;2023-08-31T04:19:55;5.03;;;3.30;;
13291;SDS011;6714;53.056;8.690;2023-08-31T04:22:38;5.80;;;3.70;;
13291;SDS011;6714;53.056;8.690;2023-08-31T04:25:24;3.90;;;2.90;;
13291;SDS011;6714;53.056;8.690;2023-08-31T04:28:06;3.13;;;2.73;;
13291;SDS011;6714;53.056;8.690;2023-08-31T04:30:48;3.03;;;2.73;;
13291;SDS011;6714;53.056;8.690;2023-08-31T04:33:31;6.63;;;3.60;;
13291;SDS011;6714;53.056;8.690;2023-08-31T04:36:13;2.33;;;2.20;;
13291;SDS011;6714;53.056;8.690;2023-08-31T04:38:56;3.67;;;3.33;;
13291;SDS011;6714;53.056;8.690;2023-08-31T04:41:40;4.57;;;3.70;;
13291;SDS011;6714;53.056;8.690;2023-08-31T04:44:22;4.83;;;3.53;;
13291;SDS011;6714;53.056;8.690;2023-08-31T04:47:04;3.63;;;2.73;;
13291;SDS011;6714;53.056;8.690;2023-08-31T04:49:47;3.50;;;2.67;;
13291;SDS011;6714;53.056;8.690;2023-08-31T04:52:29;5.20;;;3.70;;
13291;SDS011;6714;53.056;8.690;2023-08-31T04:55:12;5.73;;;3.37;;
13291;SDS011;6714;53.056;8.690;2023-08-31T04:57:56;3.60;;;3.30;;
13291;SDS011;6714;53.056;8.690;2023-08-31T05:00:39;2.63;;;2.37;;
13291;SDS011;6714;53.056;8.690;2023-08-31T05:03:21;4.87;;;3.50;;
13291;SDS011;6714;53.056;8.690;2023-08-31T05:06:03;4.60;;;3.77;;
13291;SDS011;6714;53.056;8.690;2023-08-31T05:08:46;4.03;;;3.17;;
13291;SDS011;6714;53.056;8.690;2023-08-31T05:11:28;4.07;;;3.37;;
13291;SDS011;6714;53.056;8.690;2023-08-31T05:14:12;5.17;;;4.03;;
13291;SDS011;6714;53.056;8.690;2023-08-31T05:16:55;4.17;;;3.20;;
13291;SDS011;6714;53.056;8.690;2023-08-31T05:19:37;3.77;;;3.30;;
13291;SDS011;6714;53.056;8.690;2023-08-31T05:22:20;6.63;;;3.60;;
13291;SDS011;6714;53.056;8.690;2023-08-31T05:25:02;7.20;;;4.50;;
13291;SDS011;6714;53.056;8.690;2023-08-31T05:27:45;3.77;;;3.47;;
13291;SDS011;6714;53.056;8.690;2023-08-31T05:30:29;3.23;;;2.93;;
13291;SDS011;6714;53.056;8.690;2023-08-31T05:33:11;4.23;;;3.70;;
13291;SDS011;6714;53.056;8.690;2023-08-31T05:35:53;4.27;;;3.40;;
13291;SDS011;6714;53.056;8.690;2023-08-31T05:38:36;5.33;;;3.97;;
13291;SDS011;6714;53.056;8.690;2023-08-31T05:41:18;5.03;;;4.13;;
13291;SDS011;6714;53.056;8.690;2023-08-31T05:44:01;4.60;;;3.30;;
13291;SDS011;6714;53.056;8.690;2023-08-31T05:46:45;5.73;;;5.10;;
13291;SDS011;6714;53.056;8.690;2023-08-31T05:49:27;5.00;;;4.10;;
13291;SDS011;6714;53.056;8.690;2023-08-31T05:52:09;6.23;;;3.87;;
13291;SDS011;6714;53.056;8.690;2023-08-31T05:54:52;3.33;;;2.93;;
13291;SDS011;6714;53.056;8.690;2023-08-31T05:57:34;7.30;;;4.50;;
13291;SDS011;6714;53.056;8.690;2023-08-31T06:00:18;3.40;;;2.33;;
13291;SDS011;6714;53.056;8.690;2023-08-31T06:03:02;4.07;;;2.97;;
13291;SDS011;6714;53.056;8.690;2023-08-31T06:05:45;3.77;;;3.37;;
13291;SDS011;6714;53.056;8.690;2023-08-31T06:08:28;3.13;;;2.83;;
13291;SDS011;6714;53.056;8.690;2023-08-31T06:11:11;3.27;;;2.97;;
13291;SDS011;6714;53.056;8.690;2023-08-31T06:13:54;3.63;;;3.30;;
13291;SDS011;6714;53.056;8.690;2023-08-31T06:16:36;5.67;;;4.70;;
13291;SDS011;6714;53.056;8.690;2023-08-31T06:19:20;4.10;;;3.80;;
13291;SDS011;6714;53.056;8.690;2023-08-31T06:22:03;5.50;;;3.43;;
13291;SDS011;6714;53.056;8.690;2023-08-31T06:24:45;5.57;;;4.33;;
13291;SDS011;6714;53.056;8.690;2023-08-31T06:27:27;4.07;;;3.77;;
13291;SDS011;6714;53.056;8.690;2023-08-31T06:30:10;5.03;;;4.53;;
13291;SDS011;6714;53.056;8.690;2023-08-31T06:32:56;3.43;;;3.13;;
13291;SDS011;6714;53.056;8.690;2023-08-31T06:35:39;5.43;;;4.57;;
13291;SDS011;6714;53.056;8.690;2023-08-31T06:38:22;5.23;;;4.30;;
13291;SDS011;6714;53.056;8.690;2023-08-31T06:41:04;5.57;;;4.90;;
13291;SDS011;6714;53.056;8.690;2023-08-31T06:43:47;3.53;;;3.20;;
13291;SDS011;6714;53.056;8.690;2023-08-31T06:46:29;3.50;;;3.23;;
13291;SDS011;6714;53.056;8.690;2023-08-31T06:49:14;5.10;;;4.70;;
13291;SDS011;6714;53.056;8.690;2023-08-31T06:51:57;4.47;;;4.07;;
13291;SDS011;6714;53.056;8.690;2023-08-31T06:54:40;4.97;;;4.43;;
13291;SDS011;6714;53.056;8.690;2023-08-31T06:57:22;3.03;;;2.80;;
13291;SDS011;6714;53.056;8.690;2023-08-31T07:00:05;5.20;;;4.03;;
13291;SDS011;6714;53.056;8.690;2023-08-31T07:02:48;1.90;;;1.80;;
13291;SDS011;6714;53.056;8.690;2023-08-31T07:05:32;6.07;;;5.10;;
13291;SDS011;6714;53.056;8.690;2023-08-31T07:08:19;2.60;;;2.10;;
13291;SDS011;6714;53.056;8.690;2023-08-31T07:11:01;4.53;;;3.40;;
13291;SDS011;6714;53.056;8.690;2023-08-31T07:13:44;4.47;;;3.03;;
13291;SDS011;6714;53.056;8.690;2023-08-31T07:16:27;2.87;;;2.67;;
13291;SDS011;6714;53.056;8.690;2023-08-31T07:19:09;4.40;;;4.00;;
13291;SDS011;6714;53.056;8.690;2023-08-31T07:21:51;4.83;;;4.37;;
13291;SDS011;6714;53.056;8.690;2023-08-31T07:24:36;3.33;;;3.03;;
13291;SDS011;6714;53.056;8.690;2023-08-31T07:27:18;2.37;;;2.17;;
13291;SDS011;6714;53.056;8.690;2023-08-31T07:30:01;4.57;;;4.13;;
13291;SDS011;6714;53.056;8.690;2023-08-31T07:32:44;2.63;;;2.30;;
13291;SDS011;6714;53.056;8.690;2023-08-31T07:35:27;4.93;;;4.40;;
13291;SDS011;6714;53.056;8.690;2023-08-31T07:38:09;3.13;;;2.83;;
13291;SDS011;6714;53.056;8.690;2023-08-31T07:40:53;2.70;;;2.50;;
13291;SDS011;6714;53.056;8.690;2023-08-31T07:43:35;4.27;;;3.87;;
13291;SDS011;6714;53.056;8.690;2023-08-31T07:46:17;2.00;;;1.60;;
13291;SDS011;6714;53.056;8.690;2023-08-31T07:49:00;2.27;;;2.07;;
13291;SDS011;6714;53.056;8.690;2023-08-31T07:51:44;4.33;;;3.93;;
13291;SDS011;6714;53.056;8.690;2023-08-31T07:54:26;2.10;;;1.83;;
13291;SDS011;6714;53.056;8.690;2023-08-31T07:57:10;3.23;;;2.97;;
13291;SDS011;6714;53.056;8.690;2023-08-31T07:59:52;3.03;;;2.83;;
13291;SDS011;6714;53.056;8.690;2023-08-31T08:02:34;1.80;;;1.70;;
13291;SDS011;6714;53.056;8.690;2023-08-31T08:05:17;4.37;;;3.93;;
13291;SDS011;6714;53.056;8.690;2023-08-31T08:07:59;4.20;;;3.80;;
13291;SDS011;6714;53.056;8.690;2023-08-31T08:10:41;3.67;;;3.30;;
13291;SDS011;6714;53.056;8.690;2023-08-31T08:13:25;3.10;;;2.70;;
13291;SDS011;6714;53.056;8.690;2023-08-31T08:16:09;3.80;;;3.50;;
13291;SDS011;6714;53.056;8.690;2023-08-31T08:18:51;6.10;;;5.17;;
13291;SDS011;6714;53.056;8.690;2023-08-31T08:21:34;3.17;;;2.90;;
13291;SDS011;6714;53.056;8.690;2023-08-31T08:24:16;4.03;;;3.73;;
13291;SDS011;6714;53.056;8.690;2023-08-31T08:26:58;2.37;;;2.17;;
13291;SDS011;6714;53.056;8.690;2023-08-31T08:29:42;4.77;;;4.37;;
13291;SDS011;6714;53.056;8.690;2023-08-31T08:32:25;2.77;;;2.57;;
13291;SDS011;6714;53.056;8.690;2023-08-31T08:35:07;3.80;;;3.50;;
13291;SDS011;6714;53.056;8.690;2023-08-31T08:37:49;4.17;;;3.87;;
13291;SDS011;6714;53.056;8.690;2023-08-31T08:40:32;4.60;;;4.30;;
13291;SDS011;6714;53.056;8.690;2023-08-31T08:43:14;3.80;;;3.50;;
13291;SDS011;6714;53.056;8.690;2023-08-31T08:45:58;4.47;;;4.07;;
13291;SDS011;6714;53.056;8.690;2023-08-31T08:48:44;3.20;;;3.00;;
13291;SDS011;6714;53.056;8.690;2023-08-31T08:51:27;5.07;;;4.67;;
13291;SDS011;6714;53.056;8.690;2023-08-31T08:54:10;4.73;;;4.23;;
13291;SDS011;6714;53.056;8.690;2023-08-31T08:56:52;4.47;;;4.07;;
13291;SDS011;6714;53.056;8.690;2023-08-31T08:59:35;3.60;;;3.30;;
13291;SDS011;6714;53.056;8.690;2023-08-31T09:02:19;4.37;;;3.70;;
13291;SDS011;6714;53.056;8.690;2023-08-31T09:05:02;2.40;;;2.17;;
13291;SDS011;6714;53.056;8.690;2023-08-31T09:08:00;4.93;;;4.43;;
13291;SDS011;6714;53.056;8.690;2023-08-31T09:10:43;3.30;;;3.00;;
13291;SDS011;6714;53.056;8.690;2023-08-31T09:13:26;2.20;;;2.03;;
13291;SDS011;6714;53.056;8.690;2023-08-31T09:16:12;2.53;;;2.37;;
13291;SDS011;6714;53.056;8.690;2023-08-31T09:19:00;2.77;;;2.57;;
13291;SDS011;6714;53.056;8.690;2023-08-31T09:21:59;3.63;;;3.33;;
13291;SDS011;6714;53.056;8.690;2023-08-31T09:24:41;2.50;;;2.30;;
13291;SDS011;6714;53.056;8.690;2023-08-31T09:27:24;1.80;;;1.70;;
13291;SDS011;6714;53.056;8.690;2023-08-31T09:30:07;3.60;;;2.67;;
13291;SDS011;6714;53.056;8.690;2023-08-31T09:32:52;2.07;;;1.53;;
13291;SDS011;6714;53.056;8.690;2023-08-31T09:35:39;1.20;;;1.20;;
13291;SDS011;6714;53.056;8.690;2023-08-31T09:38:22;1.93;;;1.70;;
13291;SDS011;6714;53.056;8.690;2023-08-31T09:41:04;2.07;;;1.30;;
13291;SDS011;6714;53.056;8.690;2023-08-31T09:43:47;3.73;;;1.50;;
13291;SDS011;6714;53.056;8.690;2023-08-31T09:46:29;1.90;;;1.40;;
13291;SDS011;6714;53.056;8.690;2023-08-31T09:49:13;1.53;;;1.43;;
13291;SDS011;6714;53.056;8.690;2023-08-31T09:51:57;1.10;;;1.10;;
13291;SDS011;6714;53.056;8.690;2023-08-31T09:54:41;3.67;;;1.87;;
13291;SDS011;6714;53.056;8.690;2023-08-31T09:57:24;1.37;;;1.33;;
13291;SDS011;6714;53.056;8.690;2023-08-31T10:00:07;3.00;;;1.87;;
13291;SDS011;6714;53.056;8.690;2023-08-31T10:02:50;1.33;;;1.23;;
13291;SDS011;6714;53.056;8.690;2023-08-31T10:05:32;1.63;;;1.33;;
13291;SDS011;6714;53.056;8.690;2023-08-31T10:08:17;2.47;;;1.13;;
13291;SDS011;6714;53.056;8.690;2023-08-31T10:11:00;1.23;;;1.13;;
13291;SDS011;6714;53.056;8.690;2023-08-31T10:13:44;1.43;;;1.20;;
13291;SDS011;6714;53.056;8.690;2023-08-31T10:16:29;1.67;;;1.07;;
13291;SDS011;6714;53.056;8.690;2023-08-31T10:19:12;1.23;;;1.03;;
13291;SDS011;6714;53.056;8.690;2023-08-31T10:21:54;2.20;;;1.10;;
13291;SDS011;6714;53.056;8.690;2023-08-31T10:25:00;2.47;;;1.00;;
13291;SDS011;6714;53.056;8.690;2023-08-31T10:27:44;1.07;;;0.90;;
13291;SDS011;6714;53.056;8.690;2023-08-31T10:30:30;0.70;;;0.70;;
13291;SDS011;6714;53.056;8.690;2023-08-31T10:33:21;1.23;;;0.80;;
13291;SDS011;6714;53.056;8.690;2023-08-31T10:36:04;0.80;;;0.80;;
13291;SDS011;6714;53.056;8.690;2023-08-31T10:38:59;1.07;;;0.67;;
13291;SDS011;6714;53.056;8.690;2023-08-31T10:41:51;0.80;;;0.80;;
13291;SDS011;6714;53.056;8.690;2023-08-31T10:44:34;0.80;;;0.80;;
13291;SDS011;6714;53.056;8.690;2023-08-31T10:47:16;1.37;;;0.90;;
13291;SDS011;6714;53.056;8.690;2023-08-31T10:49:58;0.87;;;0.87;;
13291;SDS011;6714;53.056;8.690;2023-08-31T10:52:57;1.70;;;0.93;;
13291;SDS011;6714;53.056;8.690;2023-08-31T10:55:50;0.77;;;0.70;;
13291;SDS011;6714;53.056;8.690;2023-08-31T10:58:34;0.80;;;0.80;;
13291;SDS011;6714;53.056;8.690;2023-08-31T11:01:16;0.67;;;0.60;;
13291;SDS011;6714;53.056;8.690;2023-08-31T11:04:19;0.80;;;0.80;;
13291;SDS011;6714;53.056;8.690;2023-08-31T11:07:14;0.73;;;0.70;;
13291;SDS011;6714;53.056;8.690;2023-08-31T11:10:07;0.50;;;0.50;;
13291;SDS011;6714;53.056;8.690;2023-08-31T11:12:51;0.83;;;0.80;;
13291;SDS011;6714;53.056;8.690;2023-08-31T11:15:35;0.80;;;0.80;;
13291;SDS011;6714;53.056;8.690;2023-08-31T11:18:19;0.77;;;0.70;;
13291;SDS011;6714;53.056;8.690;2023-08-31T11:21:02;0.90;;;0.90;;
13291;SDS011;6714;53.056;8.690;2023-08-31T11:23:47;1.03;;;0.80;;
13291;SDS011;6714;53.056;8.690;2023-08-31T11:26:29;1.20;;;1.00;;
13291;SDS011;6714;53.056;8.690;2023-08-31T11:29:12;0.80;;;0.80;;
13291;SDS011;6714;53.056;8.690;2023-08-31T11:31:57;0.63;;;0.63;;
13291;SDS011;6714;53.056;8.690;2023-08-31T11:34:40;0.70;;;0.70;;
13291;SDS011;6714;53.056;8.690;2023-08-31T11:37:23;0.83;;;0.60;;
13291;SDS011;6714;53.056;8.690;2023-08-31T11:40:07;1.20;;;1.00;;
13291;SDS011;6714;53.056;8.690;2023-08-31T11:42:50;1.03;;;0.80;;
13291;SDS011;6714;53.056;8.690;2023-08-31T11:45:33;0.70;;;0.70;;
13291;SDS011;6714;53.056;8.690;2023-08-31T11:48:18;1.13;;;0.90;;
13291;SDS011;6714;53.056;8.690;2023-08-31T11:51:00;1.90;;;0.70;;
13291;SDS011;6714;53.056;8.690;2023-08-31T11:53:43;0.70;;;0.70;;
13291;SDS011;6714;53.056;8.690;2023-08-31T11:56:25;0.70;;;0.70;;
13291;SDS011;6714;53.056;8.690;2023-08-31T11:59:08;0.80;;;0.80;;
13291;SDS011;6714;53.056;8.690;2023-08-31T12:01:52;0.93;;;0.63;;
13291;SDS011;6714;53.056;8.690;2023-08-31T12:04:43;1.30;;;0.60;;
13291;SDS011;6714;53.056;8.690;2023-08-31T12:07:25;0.60;;;0.60;;
13291;SDS011;6714;53.056;8.690;2023-08-31T12:10:08;0.90;;;0.60;;
13291;SDS011;6714;53.056;8.690;2023-08-31T12:12:51;3.27;;;1.00;;
13291;SDS011;6714;53.056;8.690;2023-08-31T12:15:35;0.50;;;0.50;;
13291;SDS011;6714;53.056;8.690;2023-08-31T12:18:18;1.10;;;0.73;;
13291;SDS011;6714;53.056;8.690;2023-08-31T12:21:02;0.67;;;0.67;;
13291;SDS011;6714;53.056;8.690;2023-08-31T12:23:45;0.60;;;0.60;;
13291;SDS011;6714;53.056;8.690;2023-08-31T12:26:27;0.87;;;0.70;;
13291;SDS011;6714;53.056;8.690;2023-08-31T12:29:10;0.63;;;0.63;;
13291;SDS011;6714;53.056;8.690;2023-08-31T12:31:53;1.57;;;0.70;;
13291;SDS011;6714;53.056;8.690;2023-08-31T12:34:35;0.90;;;0.90;;
13291;SDS011;6714;53.056;8.690;2023-08-31T12:37:19;1.33;;;0.87;;
13291;SDS011;6714;53.056;8.690;2023-08-31T12:40:02;0.97;;;0.80;;
13291;SDS011;6714;53.056;8.690;2023-08-31T12:42:47;0.70;;;0.70;;
13291;SDS011;6714;53.056;8.690;2023-08-31T12:45:29;1.50;;;0.70;;
13291;SDS011;6714;53.056;8.690;2023-08-31T12:48:11;1.43;;;0.80;;
13291;SDS011;6714;53.056;8.690;2023-08-31T12:50:54;1.07;;;0.77;;
13291;SDS011;6714;53.056;8.690;2023-08-31T12:53:41;1.33;;;0.80;;
13291;SDS011;6714;53.056;8.690;2023-08-31T12:56:24;0.80;;;0.80;;
13291;SDS011;6714;53.056;8.690;2023-08-31T12:59:06;2.47;;;1.10;;
13291;SDS011;6714;53.056;8.690;2023-08-31T13:01:48;1.83;;;0.80;;
13291;SDS011;6714;53.056;8.690;2023-08-31T13:04:31;0.80;;;0.77;;
13291;SDS011;6714;53.056;8.690;2023-08-31T13:07:13;0.63;;;0.63;;
13291;SDS011;6714;53.056;8.690;2023-08-31T13:09:59;1.90;;;0.80;;
13291;SDS011;6714;53.056;8.690;2023-08-31T13:12:43;1.47;;;0.87;;
13291;SDS011;6714;53.056;8.690;2023-08-31T13:15:26;0.60;;;0.60;;
13291;SDS011;6714;53.056;8.690;2023-08-31T13:18:08;0.70;;;0.70;;
13291;SDS011;6714;53.056;8.690;2023-08-31T13:20:50;0.83;;;0.67;;
13291;SDS011;6714;53.056;8.690;2023-08-31T13:23:33;1.13;;;0.63;;
13291;SDS011;6714;53.056;8.690;2023-08-31T13:26:17;0.70;;;0.70;;
13291;SDS011;6714;53.056;8.690;2023-08-31T13:28:59;0.93;;;0.70;;
13291;SDS011;6714;53.056;8.690;2023-08-31T13:31:42;0.83;;;0.70;;
13291;SDS011;6714;53.056;8.690;2023-08-31T13:34:25;1.07;;;0.90;;
13291;SDS011;6714;53.056;8.690;2023-08-31T13:37:07;1.03;;;0.93;;
13291;SDS011;6714;53.056;8.690;2023-08-31T13:39:50;0.70;;;0.70;;
13291;SDS011;6714;53.056;8.690;2023-08-31T13:42:35;1.67;;;0.70;;
13291;SDS011;6714;53.056;8.690;2023-08-31T13:45:18;0.80;;;0.80;;
13291;SDS011;6714;53.056;8.690;2023-08-31T13:48:00;0.90;;;0.80;;
13291;SDS011;6714;53.056;8.690;2023-08-31T13:50:45;0.83;;;0.83;;
13291;SDS011;6714;53.056;8.690;2023-08-31T13:53:28;1.03;;;1.03;;
13291;SDS011;6714;53.056;8.690;2023-08-31T13:56:10;0.90;;;0.90;;
13291;SDS011;6714;53.056;8.690;2023-08-31T13:58:54;0.87;;;0.87;;
13291;SDS011;6714;53.056;8.690;2023-08-31T14:01:38;0.87;;;0.80;;
13291;SDS011;6714;53.056;8.690;2023-08-31T14:04:21;0.60;;;0.60;;
13291;SDS011;6714;53.056;8.690;2023-08-31T14:07:03;0.60;;;0.60;;
13291;SDS011;6714;53.056;8.690;2023-08-31T14:09:48;0.70;;;0.70;;
13291;SDS011;6714;53.056;8.690;2023-08-31T14:12:30;0.97;;;0.83;;
13291;SDS011;6714;53.056;8.690;2023-08-31T14:15:15;0.70;;;0.70;;
13291;SDS011;6714;53.056;8.690;2023-08-31T14:17:57;0.53;;;0.53;;
13291;SDS011;6714;53.056;8.690;2023-08-31T14:20:39;0.97;;;0.80;;
13291;SDS011;6714;53.056;8.690;2023-08-31T14:23:21;0.70;;;0.70;;
13291;SDS011;6714;53.056;8.690;2023-08-31T14:26:04;0.80;;;0.80;;
13291;SDS011;6714;53.056;8.690;2023-08-31T14:28:46;0.93;;;0.90;;
13291;SDS011;6714;53.056;8.690;2023-08-31T14:31:30;0.80;;;0.80;;
13291;SDS011;6714;53.056;8.690;2023-08-31T14:34:12;0.93;;;0.87;;
13291;SDS011;6714;53.056;8.690;2023-08-31T14:36:54;1.70;;;0.90;;
13291;SDS011;6714;53.056;8.690;2023-08-31T14:39:40;0.87;;;0.80;;
13291;SDS011;6714;53.056;8.690;2023-08-31T14:42:22;0.80;;;0.80;;
13291;SDS011;6714;53.056;8.690;2023-08-31T14:45:05;1.07;;;0.90;;
13291;SDS011;6714;53.056;8.690;2023-08-31T14:47:49;0.87;;;0.73;;
13291;SDS011;6714;53.056;8.690;2023-08-31T14:50:32;0.70;;;0.70;;
13291;SDS011;6714;53.056;8.690;2023-08-31T14:53:14;0.83;;;0.83;;
13291;SDS011;6714;53.056;8.690;2023-08-31T14:55:57;0.70;;;0.70;;
13291;SDS011;6714;53.056;8.690;2023-08-31T14:58:39;0.97;;;0.70;;
13291;SDS011;6714;53.056;8.690;2023-08-31T15:01:22;0.70;;;0.70;;
13291;SDS011;6714;53.056;8.690;2023-08-31T15:04:06;0.80;;;0.73;;
13291;SDS011;6714;53.056;8.690;2023-08-31T15:06:49;1.07;;;0.90;;
13291;SDS011;6714;53.056;8.690;2023-08-31T15:09:31;1.83;;;0.77;;
13291;SDS011;6714;53.056;8.690;2023-08-31T15:12:14;0.90;;;0.90;;
13291;SDS011;6714;53.056;8.690;2023-08-31T15:14:56;1.57;;;0.93;;
13291;SDS011;6714;53.056;8.690;2023-08-31T15:17:38;1.13;;;0.80;;
13291;SDS011;6714;53.056;8.690;2023-08-31T15:20:22;0.87;;;0.87;;
13291;SDS011;6714;53.056;8.690;2023-08-31T15:23:05;1.03;;;0.90;;
13291;SDS011;6714;53.056;8.690;2023-08-31T15:25:48;0.80;;;0.80;;
13291;SDS011;6714;53.056;8.690;2023-08-31T15:28:32;1.07;;;0.97;;
13291;SDS011;6714;53.056;8.690;2023-08-31T15:31:14;1.47;;;0.87;;
13291;SDS011;6714;53.056;8.690;2023-08-31T15:33:57;0.77;;;0.77;;
13291;SDS011;6714;53.056;8.690;2023-08-31T15:36:41;0.80;;;0.80;;
13291;SDS011;6714;53.056;8.690;2023-08-31T15:39:23;1.47;;;1.10;;
13291;SDS011;6714;53.056;8.690;2023-08-31T15:42:05;0.77;;;0.77;;
13291;SDS011;6714;53.056;8.690;2023-08-31T15:44:48;0.80;;;0.80;;
13291;SDS011;6714;53.056;8.690;2023-08-31T15:47:30;0.80;;;0.80;;
13291;SDS011;6714;53.056;8.690;2023-08-31T15:50:13;0.80;;;0.80;;
13291;SDS011;6714;53.056;8.690;2023-08-31T15:52:56;1.57;;;0.90;;
13291;SDS011;6714;53.056;8.690;2023-08-31T15:55:39;1.07;;;0.90;;
13291;SDS011;6714;53.056;8.690;2023-08-31T15:58:21;1.70;;;0.80;;
13291;SDS011;6714;53.056;8.690;2023-08-31T16:01:08;0.83;;;0.70;;
13291;SDS011;6714;53.056;8.690;2023-08-31T16:03:50;0.70;;;0.70;;
13291;SDS011;6714;53.056;8.690;2023-08-31T16:06:33;1.00;;;0.87;;
13291;SDS011;6714;53.056;8.690;2023-08-31T16:09:19;0.80;;;0.80;;
13291;SDS011;6714;53.056;8.690;2023-08-31T16:12:01;0.60;;;0.60;;
13291;SDS011;6714;53.056;8.690;2023-08-31T16:14:45;0.80;;;0.73;;
13291;SDS011;6714;53.056;8.690;2023-08-31T16:17:28;0.83;;;0.80;;
13291;SDS011;6714;53.056;8.690;2023-08-31T16:20:11;0.80;;;0.80;;
13291;SDS011;6714;53.056;8.690;2023-08-31T16:22:54;1.07;;;0.70;;
13291;SDS011;6714;53.056;8.690;2023-08-31T16:25:38;0.60;;;0.60;;
13291;SDS011;6714;53.056;8.690;2023-08-31T16:28:20;1.53;;;0.90;;
13291;SDS011;6714;53.056;8.690;2023-08-31T16:31:02;1.47;;;1.00;;
13291;SDS011;6714;53.056;8.690;2023-08-31T16:33:45;1.77;;;1.17;;
13291;SDS011;6714;53.056;8.690;2023-08-31T16:36:27;1.40;;;0.80;;
13291;SDS011;6714;53.056;8.690;2023-08-31T16:39:09;1.17;;;1.00;;